createdAt,value
2019-01-19T00:02:37.756Z,-1.46
2019-01-19T00:07:55.415Z,-1.43
2019-01-19T00:13:18.402Z,-1.43
2019-01-19T00:19:01.643Z,-1.42
2019-01-19T00:24:17.026Z,-1.48
2019-01-19T00:29:33.556Z,-1.55
2019-01-19T00:35:08.479Z,-1.62
2019-01-19T00:40:55.382Z,-1.67
2019-01-19T00:46:38.169Z,-1.69
2019-01-19T00:52:40.450Z,-1.70
2019-01-19T00:58:15.129Z,-1.66
2019-01-19T01:03:26.986Z,-1.73
2019-01-19T01:08:52.063Z,-1.82
2019-01-19T01:14:39.170Z,-1.84
2019-01-19T01:20:18.364Z,-1.89
2019-01-19T01:25:58.411Z,-2.06
2019-01-19T01:31:25.356Z,-2.12
2019-01-19T01:37:21.383Z,-2.15
2019-01-19T01:43:02.615Z,-2.18
2019-01-19T01:48:48.802Z,-2.08
2019-01-19T01:54:49.926Z,-2.08
2019-01-19T02:00:47.151Z,-2.16
2019-01-19T02:06:46.446Z,-2.13
2019-01-19T02:12:17.862Z,-2.14
2019-01-19T02:17:47.147Z,-2.04
2019-01-19T02:23:01.083Z,-2.16
2019-01-19T02:28:33.406Z,-2.33
2019-01-19T02:33:50.034Z,-2.35
2019-01-19T02:39:29.854Z,-2.35
2019-01-19T02:45:29.125Z,-2.34
2019-01-19T02:50:53.631Z,-2.23
2019-01-19T02:56:28.654Z,-2.10
2019-01-19T03:01:39.645Z,-2.17
2019-01-19T03:07:17.986Z,-2.13
2019-01-19T03:13:14.420Z,-2.15
2019-01-19T03:18:49.045Z,-2.36
2019-01-19T03:24:20.555Z,-2.61
2019-01-19T03:29:44.763Z,-2.70
2019-01-19T03:35:16.524Z,-2.90
2019-01-19T03:40:38.971Z,-3.08
2019-01-19T03:46:01.035Z,-3.23
2019-01-19T03:51:16.396Z,-3.31
2019-01-19T03:56:48.781Z,-3.44
2019-01-19T04:02:33.698Z,-3.49
2019-01-19T04:07:49.162Z,-3.54
2019-01-19T04:13:28.131Z,-3.65
2019-01-19T04:19:02.773Z,-3.59
2019-01-19T04:24:15.298Z,-3.79
2019-01-19T04:29:17.236Z,-3.79
2019-01-19T04:34:19.710Z,-3.87
2019-01-19T04:39:21.651Z,-3.81
2019-01-19T04:44:24.060Z,-3.83
2019-01-19T04:49:26.043Z,-3.86
2019-01-19T04:54:28.081Z,-3.85
2019-01-19T04:59:30.027Z,-3.95
2019-01-19T05:04:32.053Z,-3.95
2019-01-19T05:09:34.100Z,-4.00
2019-01-19T05:14:36.021Z,-3.99
2019-01-19T05:19:38.162Z,-4.04
2019-01-19T05:24:40.402Z,-4.08
2019-01-19T05:29:42.322Z,-4.16
2019-01-19T05:34:44.339Z,-4.15
2019-01-19T05:39:46.258Z,-4.18
2019-01-19T05:44:48.435Z,-4.23
2019-01-19T05:49:50.475Z,-4.25
2019-01-19T05:54:52.406Z,-4.30
2019-01-19T05:59:54.367Z,-4.34
2019-01-19T06:04:56.489Z,-4.33
2019-01-19T06:09:58.400Z,-4.43
2019-01-19T06:15:00.339Z,-4.41
2019-01-19T06:20:03.424Z,-4.35
2019-01-19T06:25:06.876Z,-4.42
2019-01-19T06:30:15.073Z,-4.45
2019-01-19T06:35:17.208Z,-4.04
2019-01-19T06:40:19.715Z,-3.18
2019-01-19T06:45:23.992Z,-3.69
2019-01-19T06:50:26.136Z,-3.56
2019-01-19T06:55:30.499Z,-3.93
2019-01-19T07:00:32.622Z,-4.05
2019-01-19T07:05:34.767Z,-4.22
2019-01-19T07:10:36.811Z,-4.43
2019-01-19T07:15:38.729Z,-4.64
2019-01-19T07:20:40.813Z,-4.71
2019-01-19T07:25:43.436Z,-4.77
2019-01-19T07:30:45.593Z,-4.67
2019-01-19T07:35:47.807Z,-4.55
2019-01-19T07:40:49.936Z,-4.60
2019-01-19T07:45:52.076Z,-4.57
2019-01-19T07:50:54.087Z,-4.51
2019-01-19T07:55:56.020Z,-4.44
2019-01-19T08:00:58.005Z,-4.39
2019-01-19T08:06:00.007Z,-4.28
2019-01-19T08:11:03.419Z,-4.23
2019-01-19T08:16:05.497Z,-4.14
2019-01-19T08:21:07.647Z,-3.95
2019-01-19T08:26:10.032Z,-3.82
2019-01-19T08:31:11.958Z,-3.69
2019-01-19T08:36:13.967Z,-3.54
2019-01-19T08:41:15.890Z,-3.43
2019-01-19T08:46:17.821Z,-3.37
2019-01-19T08:51:20.281Z,-3.17
2019-01-19T08:56:41.036Z,-3.01
2019-01-19T09:02:01.616Z,-2.54
2019-01-19T09:07:22.370Z,-2.13
2019-01-19T09:12:43.106Z,-1.82
2019-01-19T09:18:03.840Z,-1.61
2019-01-19T09:23:28.115Z,-1.32
2019-01-19T09:28:48.406Z,-1.24
2019-01-19T09:33:50.970Z,-0.56
2019-01-19T09:38:53.128Z,-0.16
2019-01-19T09:43:55.155Z,0.05
2019-01-19T09:48:57.180Z,0.72
2019-01-19T09:54:00.472Z,1.29
2019-01-19T09:59:02.543Z,1.61
2019-01-19T10:04:04.720Z,1.67
2019-01-19T10:09:07.044Z,1.75
2019-01-19T10:14:10.190Z,1.52
2019-01-19T10:19:12.714Z,2.05
2019-01-19T10:24:33.150Z,2.49
2019-01-19T10:29:35.064Z,2.53
2019-01-19T10:34:37.540Z,2.96
2019-01-19T10:39:39.559Z,2.68
2019-01-19T10:44:41.507Z,2.68
2019-01-19T10:49:43.430Z,3.43
2019-01-19T10:54:45.372Z,2.89
2019-01-19T10:59:48.142Z,3.66
2019-01-19T11:04:50.091Z,4.49
2019-01-19T11:09:51.996Z,4.42
2019-01-19T11:14:53.945Z,4.59
2019-01-19T11:19:55.843Z,4.10
2019-01-19T11:24:57.791Z,3.92
2019-01-19T11:30:00.802Z,4.27
2019-01-19T11:35:03.275Z,4.45
2019-01-19T11:40:10.242Z,4.61
2019-01-19T11:45:14.753Z,4.38
2019-01-19T11:50:17.261Z,4.90
2019-01-19T11:55:19.822Z,4.26
2019-01-19T12:00:25.078Z,4.60
2019-01-19T12:05:27.175Z,4.37
2019-01-19T12:10:29.516Z,4.58
2019-01-19T12:15:31.635Z,4.38
2019-01-19T12:20:38.834Z,5.16
2019-01-19T12:25:40.960Z,5.37
2019-01-19T12:30:43.260Z,5.30
2019-01-19T12:35:46.170Z,5.28
2019-01-19T12:40:48.097Z,5.51
2019-01-19T12:45:58.868Z,5.78
2019-01-19T12:51:04.107Z,5.17
2019-01-19T12:56:06.331Z,5.73
2019-01-19T13:01:08.492Z,5.93
2019-01-19T13:06:38.288Z,6.42
2019-01-19T13:12:23.383Z,6.57
2019-01-19T13:17:54.394Z,6.93
2019-01-19T13:23:31.419Z,7.05
2019-01-19T13:29:13.164Z,6.75
2019-01-19T13:34:59.002Z,6.29
2019-01-19T13:41:01.076Z,6.57
2019-01-19T13:46:54.077Z,6.26
2019-01-19T13:52:28.484Z,6.46
2019-01-19T13:58:03.639Z,6.51
2019-01-19T14:04:00.149Z,6.97
2019-01-19T14:09:54.880Z,6.90
2019-01-19T14:15:36.164Z,6.29
2019-01-19T14:21:08.268Z,6.05
2019-01-19T14:26:35.127Z,5.95
2019-01-19T14:32:10.988Z,5.47
2019-01-19T14:37:26.918Z,5.39
2019-01-19T14:43:00.668Z,5.19
2019-01-19T14:49:09.085Z,4.27
2019-01-19T14:54:49.609Z,3.24
2019-01-19T15:00:48.957Z,2.46
2019-01-19T15:06:33.997Z,2.22
2019-01-19T15:12:23.766Z,1.82
2019-01-19T15:17:48.592Z,1.72
2019-01-19T15:23:23.218Z,1.31
2019-01-19T15:28:54.575Z,1.09
2019-01-19T15:34:46.552Z,0.97
2019-01-19T15:40:30.133Z,0.88
2019-01-19T15:46:07.754Z,0.72
2019-01-19T15:51:43.417Z,0.45
2019-01-19T15:57:11.004Z,0.23
2019-01-19T16:02:43.709Z,0.24
2019-01-19T16:08:30.259Z,0.25
2019-01-19T16:14:03.577Z,0.21
2019-01-19T16:19:17.274Z,0.27
2019-01-19T16:24:32.572Z,0.17
2019-01-19T16:30:16.223Z,0.14
2019-01-19T16:35:55.749Z,-0.07
2019-01-19T16:41:35.749Z,-0.26
2019-01-19T16:47:15.185Z,-0.43
2019-01-19T16:52:33.854Z,-0.58
2019-01-19T16:57:54.555Z,-0.60
2019-01-19T17:03:29.200Z,-0.74
2019-01-19T17:09:01.807Z,-0.79
2019-01-19T17:14:26.170Z,-0.90
2019-01-19T17:20:07.672Z,-1.13
2019-01-19T17:25:36.651Z,-1.30
2019-01-19T17:31:17.891Z,-1.38
2019-01-19T17:36:50.010Z,-1.45
2019-01-19T17:42:03.438Z,-1.55
2019-01-19T17:47:30.284Z,-1.53
2019-01-19T17:53:11.576Z,-1.70
2019-01-19T17:58:46.238Z,-1.85
2019-01-19T18:04:13.399Z,-1.93
2019-01-19T18:09:48.355Z,-2.07
2019-01-19T18:15:35.776Z,-1.99
2019-01-19T18:21:37.642Z,-2.02
2019-01-19T18:27:12.722Z,-1.85
2019-01-19T18:33:10.515Z,-2.06
2019-01-19T18:38:33.718Z,-1.97
2019-01-19T18:44:09.156Z,-2.02
2019-01-19T18:49:49.548Z,-2.16
2019-01-19T18:55:23.755Z,-2.28
2019-01-19T19:00:51.520Z,-2.32
2019-01-19T19:06:23.580Z,-2.47
2019-01-19T19:12:09.275Z,-2.43
2019-01-19T19:17:56.332Z,-2.55
2019-01-19T19:23:38.675Z,-2.59
2019-01-19T19:28:51.249Z,-2.65
2019-01-19T19:34:15.816Z,-2.51
2019-01-19T19:39:27.668Z,-2.71
2019-01-19T19:45:11.659Z,-2.56
2019-01-19T19:51:01.507Z,-2.66
2019-01-19T19:56:02.751Z,-2.90
2019-01-19T20:01:04.819Z,-2.84
2019-01-19T20:06:06.861Z,-2.95
2019-01-19T20:11:08.918Z,-3.28
2019-01-19T20:16:10.947Z,-3.24
2019-01-19T20:21:13.161Z,-3.44
2019-01-19T20:26:15.607Z,-3.44
2019-01-19T20:31:17.528Z,-3.76
2019-01-19T20:36:19.604Z,-3.67
2019-01-19T20:41:21.659Z,-3.72
2019-01-19T20:46:23.683Z,-3.89
2019-01-19T20:51:27.087Z,-3.76
2019-01-19T20:56:30.159Z,-3.89
2019-01-19T21:01:32.128Z,-3.93
2019-01-19T21:06:34.078Z,-4.28
2019-01-19T21:11:36.122Z,-4.45
2019-01-19T21:16:38.452Z,-4.41
2019-01-19T21:21:40.372Z,-4.53
2019-01-19T21:26:42.320Z,-4.59
2019-01-19T21:31:44.238Z,-4.48
2019-01-19T21:36:46.162Z,-4.54
2019-01-19T21:41:48.099Z,-4.64
2019-01-19T21:46:50.021Z,-4.63
2019-01-19T21:51:51.993Z,-4.77
2019-01-19T21:56:53.990Z,-4.92
2019-01-19T22:01:55.931Z,-4.97
2019-01-19T22:06:57.855Z,-4.51
2019-01-19T22:12:01.255Z,-4.64
2019-01-19T22:17:03.387Z,-5.02
2019-01-19T22:22:05.408Z,-5.16
2019-01-19T22:27:07.996Z,-5.28
2019-01-19T22:32:10.015Z,-5.38
2019-01-19T22:37:11.939Z,-5.24
2019-01-19T22:42:13.927Z,-5.37
2019-01-19T22:47:15.844Z,-5.53
2019-01-19T22:52:17.757Z,-5.62
2019-01-19T22:57:19.843Z,-5.47
2019-01-19T23:02:22.279Z,-5.41
2019-01-19T23:07:24.894Z,-5.69
2019-01-19T23:12:27.245Z,-5.75
2019-01-19T23:17:29.252Z,-5.84
2019-01-19T23:22:31.455Z,-5.88
2019-01-19T23:27:33.659Z,-5.90
2019-01-19T23:32:36.880Z,-5.77
2019-01-19T23:37:38.790Z,-5.87
2019-01-19T23:42:47.054Z,-6.01
2019-01-19T23:47:45.863Z,-5.91
2019-01-19T23:52:47.769Z,-5.83
2019-01-19T23:57:49.728Z,-6.01
